Time;durP1;ratioP1;P1;durP2;ratioP2;P2;SDS_P1;SDS_P2;PMS_P1;PMS_P2;Temp;Humidity;BMP_temperature;BMP_pressure;BME280_temperature;BME280_humidity;BME280_pressure;Samples;Min_cycle;Max_cycle;Signal;HPM_P1;HPM_P2
2022/03/09 00:00:34;;;;;;;;;65.25;48.25;;;;;8.10;45.26;101591.97;5072980;27;45327;-73
2022/03/09 00:03:00;;;;;;;;;66.75;49.00;;;;;7.90;45.50;101572.59;5076649;28;45388;-73
2022/03/09 00:05:25;;;;;;;;;63.25;51.00;;;;;8.02;45.63;101591.63;5075032;28;46183;-73
2022/03/09 00:07:50;;;;;;;;;60.25;48.75;;;;;7.88;46.04;101563.75;5079705;27;45174;-73
2022/03/09 00:10:16;;;;;;;;;61.25;49.25;;;;;7.69;45.68;101536.53;5075146;27;45370;-73
2022/03/09 00:12:42;;;;;;;;;59.75;48.25;;;;;7.86;45.59;101566.28;5074059;28;45249;-73
2022/03/09 00:15:08;;;;;;;;;64.25;47.25;;;;;7.85;45.73;101569.75;5074156;27;46363;-74
2022/03/09 00:17:34;;;;;;;;;61.75;49.50;;;;;7.49;45.23;101513.63;5078115;28;45327;-73
2022/03/09 00:19:59;;;;;;;;;65.50;48.25;;;;;7.96;45.45;101588.69;5075341;27;45529;-74
2022/03/09 00:22:24;;;;;;;;;62.00;47.75;;;;;7.64;45.99;101540.66;5066908;27;45307;-73
2022/03/09 00:24:50;;;;;;;;;64.50;51.50;;;;;7.74;46.26;101563.97;5109161;27;47363;-73
2022/03/09 00:27:15;;;;;;;;;63.50;50.25;;;;;7.84;46.70;101583.72;5067977;27;45503;-73
2022/03/09 00:29:40;;;;;;;;;62.50;48.25;;;;;7.78;46.19;101600.13;5091708;27;45294;-73
2022/03/09 00:32:06;;;;;;;;;61.00;48.25;;;;;7.53;45.95;101562.94;5069153;27;45387;-74
2022/03/09 00:34:33;;;;;;;;;70.25;49.25;;;;;7.11;47.17;101495.19;5076234;28;46985;-73
2022/03/09 00:36:58;;;;;;;;;65.75;50.25;;;;;7.70;46.10;101604.16;5077942;28;45331;-73
2022/03/09 00:39:24;;;;;;;;;67.50;50.00;;;;;7.69;46.97;101604.06;5078464;27;45480;-73
2022/03/09 00:41:49;;;;;;;;;58.50;45.25;;;;;7.29;46.27;101537.25;5070338;28;45859;-73
2022/03/09 00:44:15;;;;;;;;;63.00;48.75;;;;;7.56;46.94;101600.84;5077521;28;45264;-73
2022/03/09 00:46:40;;;;;;;;;58.25;47.50;;;;;7.42;47.11;101593.97;5073250;28;45351;-73
2022/03/09 00:49:06;;;;;;;;;60.25;48.50;;;;;7.23;46.65;101567.59;5078223;27;45523;-73
2022/03/09 00:51:31;;;;;;;;;61.75;48.50;;;;;7.26;47.22;101580.91;5078935;27;45275;-73
2022/03/09 00:53:56;;;;;;;;;62.25;49.75;;;;;7.17;47.48;101579.59;5078363;27;45232;-73
2022/03/09 00:56:22;;;;;;;;;71.50;50.25;;;;;7.29;47.83;101617.84;5069323;27;45323;-73
2022/03/09 00:58:48;;;;;;;;;68.75;52.25;;;;;7.25;47.77;101614.16;5079014;27;45340;-73
2022/03/09 01:01:14;;;;;;;;;59.75;45.75;;;;;7.24;48.28;101619.34;5069210;27;45734;-73
2022/03/09 01:03:40;;;;;;;;;61.00;48.25;;;;;6.58;48.42;101516.09;5078676;27;45456;-73
2022/03/09 01:06:05;;;;;;;;;62.75;49.00;;;;;7.14;48.58;101625.84;5073502;28;45822;-73
2022/03/09 01:08:31;;;;;;;;;68.75;49.00;;;;;6.78;48.24;101575.84;5078923;27;45557;-73
2022/03/09 01:10:56;;;;;;;;;68.50;52.25;;;;;6.71;48.27;101571.97;5068968;27;45470;-73
2022/03/09 01:13:22;;;;;;;;;64.75;49.00;;;;;6.82;48.32;101593.56;5077924;28;46027;-72
2022/03/09 01:15:48;;;;;;;;;61.00;48.50;;;;;6.79;49.51;101606.53;5073619;27;45438;-74
2022/03/09 01:18:13;;;;;;;;;73.75;53.00;;;;;6.93;49.31;101644.94;5064795;27;45226;-71
2022/03/09 01:20:39;;;;;;;;;75.50;54.00;;;;;6.66;49.74;101591.84;5073137;28;46189;-71
2022/03/09 01:23:04;;;;;;;;;66.50;53.00;;;;;6.77;48.88;101623.94;5066320;28;46278;-72
2022/03/09 01:25:30;;;;;;;;;67.75;51.75;;;;;6.50;49.43;101584.00;5075512;28;45275;-72
2022/03/09 01:27:55;;;;;;;;;65.25;50.00;;;;;6.64;50.16;101608.38;5068893;27;45405;-71
2022/03/09 01:30:20;;;;;;;;;72.00;52.75;;;;;6.72;50.07;101634.22;5077673;28;45258;-73
2022/03/09 01:32:46;;;;;;;;;62.75;48.50;;;;;6.34;49.99;101566.50;5068814;27;46655;-73
2022/03/09 01:35:11;;;;;;;;;66.25;51.50;;;;;6.71;49.51;101626.25;5069455;28;45369;-73
2022/03/09 01:37:37;;;;;;;;;67.00;50.00;;;;;6.75;49.68;101622.03;5070396;27;45859;-73
2022/03/09 01:40:03;;;;;;;;;68.25;54.25;;;;;6.63;50.46;101609.16;5077893;28;45252;-73
2022/03/09 01:42:28;;;;;;;;;69.75;54.00;;;;;6.55;49.49;101595.63;5076594;28;47373;-73
2022/03/09 01:45:00;;;;;;;;;62.50;47.25;;;;;6.64;48.08;101614.50;5077772;28;45398;-73
2022/03/09 01:47:26;;;;;;;;;66.00;53.00;;;;;6.38;50.63;101570.19;5072550;27;45366;-73
2022/03/09 01:49:51;;;;;;;;;61.75;48.25;;;;;6.10;49.96;101526.69;5074813;28;45730;-73
2022/03/09 01:52:16;;;;;;;;;64.50;49.00;;;;;6.67;50.20;101625.19;5071580;28;48020;-73
2022/03/09 01:54:42;;;;;;;;;70.50;53.25;;;;;6.31;50.56;101562.81;5078156;28;45432;-73
2022/03/09 01:57:08;;;;;;;;;73.25;54.75;;;;;6.61;50.15;101616.97;5072278;27;45176;-73
2022/03/09 01:59:34;;;;;;;;;70.00;51.25;;;;;6.49;50.73;101592.66;5081070;27;45471;-73
2022/03/09 02:01:59;;;;;;;;;70.00;52.25;;;;;6.23;51.01;101557.16;5072314;27;45390;-73
2022/03/09 02:04:24;;;;;;;;;71.25;54.50;;;;;6.10;51.17;101526.69;5080789;27;45486;-73
2022/03/09 02:06:50;;;;;;;;;66.50;51.50;;;;;6.49;51.00;101622.47;5078070;28;45525;-73
2022/03/09 02:12:18;;;;;;;;;64.75;45.75;;;;;6.36;50.96;101606.88;5057497;28;46526;-73
2022/03/09 02:14:45;;;;;;;;;73.00;52.25;;;;;6.32;50.84;101596.13;5060868;28;45498;-72
2022/03/09 02:17:19;;;;;;;;;67.75;50.50;;;;;6.36;50.98;101612.13;5071083;28;45427;-73
2022/03/09 02:19:48;;;;;;;;;65.50;50.00;;;;;5.98;50.68;101549.66;5077274;27;45366;-73
2022/03/09 02:22:19;;;;;;;;;70.00;51.25;;;;;6.32;51.30;101610.16;5069709;28;45549;-73
2022/03/09 02:24:49;;;;;;;;;64.50;46.25;;;;;6.17;50.90;101588.31;5077097;28;45493;-73
2022/03/09 02:27:14;;;;;;;;;68.25;49.50;;;;;5.97;52.22;101556.63;5070330;27;45335;-74
2022/03/09 02:29:40;;;;;;;;;66.75;50.25;;;;;6.13;50.03;101581.06;5076743;28;46100;-72
2022/03/09 02:32:06;;;;;;;;;68.50;49.50;;;;;6.27;52.18;101608.97;5087344;27;47453;-73
2022/03/09 02:34:31;;;;;;;;;68.50;50.00;;;;;6.24;51.24;101607.09;5080210;28;45402;-73
2022/03/09 02:36:57;;;;;;;;;67.00;50.50;;;;;5.78;52.74;101538.94;5072956;27;44804;-73
2022/03/09 02:39:23;;;;;;;;;65.50;51.25;;;;;6.16;52.59;101612.75;5111541;27;46025;-73
2022/03/09 02:41:48;;;;;;;;;60.00;45.00;;;;;6.13;53.36;101623.97;5073532;27;46181;-73
2022/03/09 02:44:14;;;;;;;;;64.00;41.00;;;;;6.05;51.45;101599.94;5079535;28;45472;-73
2022/03/09 02:46:39;;;;;;;;;69.75;53.75;;;;;6.13;53.80;101616.09;5075248;27;45415;-73
2022/03/09 02:49:05;;;;;;;;;70.00;52.50;;;;;6.10;52.98;101615.94;5074908;28;45529;-73
2022/03/09 02:51:30;;;;;;;;;69.00;53.00;;;;;6.10;51.88;101615.03;5096342;27;47176;-73
2022/03/09 02:53:56;;;;;;;;;65.50;51.25;;;;;5.79;53.70;101563.44;5078848;28;45351;-73
2022/03/09 02:56:21;;;;;;;;;68.50;51.00;;;;;5.96;51.99;101590.66;5071478;27;45431;-73
2022/03/09 02:58:47;;;;;;;;;66.00;49.25;;;;;5.73;51.52;101550.00;5079308;28;45906;-72
2022/03/09 03:01:13;;;;;;;;;68.00;54.00;;;;;5.62;53.62;101541.50;5069751;27;46106;-73
2022/03/09 03:03:40;;;;;;;;;64.25;49.50;;;;;6.07;53.24;101620.13;5079179;28;45347;-73
2022/03/09 03:06:06;;;;;;;;;67.25;53.00;;;;;6.07;54.15;101623.63;5075560;28;45807;-73
2022/03/09 03:08:33;;;;;;;;;66.75;50.75;;;;;6.08;53.81;101616.66;5080608;27;45216;-73
2022/03/09 03:10:59;;;;;;;;;70.00;52.75;;;;;5.72;54.11;101564.81;5078103;28;47649;-73
2022/03/09 03:13:24;;;;;;;;;71.50;54.00;;;;;5.97;54.31;101619.63;5080181;28;45392;-73
2022/03/09 03:15:49;;;;;;;;;65.00;49.25;;;;;6.04;54.45;101632.25;5069433;28;45783;-73
2022/03/09 03:18:15;;;;;;;;;65.25;51.50;;;;;5.92;54.29;101613.16;5066923;28;45434;-73
2022/03/09 03:20:40;;;;;;;;;61.25;47.50;;;;;5.94;54.74;101632.56;5070421;28;47087;-73
2022/03/09 03:23:05;;;;;;;;;67.75;50.25;;;;;5.68;56.63;101588.16;5067830;28;45317;-73
2022/03/09 03:25:31;;;;;;;;;63.50;47.50;;;;;5.71;55.02;101602.34;5073225;28;45319;-73
2022/03/09 03:27:56;;;;;;;;;55.00;41.25;;;;;5.67;55.16;101599.47;5069275;27;45635;-73
2022/03/09 03:30:21;;;;;;;;;63.00;47.00;;;;;5.82;56.78;101629.19;5079251;28;46087;-73
2022/03/09 03:32:46;;;;;;;;;63.50;50.00;;;;;5.81;56.16;101633.53;5075198;28;45343;-73
2022/03/09 03:35:12;;;;;;;;;61.75;48.00;;;;;5.74;56.04;101601.63;5069318;28;45456;-73
2022/03/09 03:37:39;;;;;;;;;64.00;49.75;;;;;5.36;55.76;101529.56;5078919;28;45691;-73
2022/03/09 03:40:06;;;;;;;;;60.50;43.25;;;;;5.80;56.85;101617.72;5069639;28;47309;-73
2022/03/09 03:42:31;;;;;;;;;65.50;48.00;;;;;5.80;55.11;101618.63;5080335;28;45173;-73
2022/03/09 03:44:56;;;;;;;;;65.50;49.75;;;;;5.55;56.55;101573.47;5078188;27;45338;-73
2022/03/09 03:47:22;;;;;;;;;65.00;47.50;;;;;5.27;56.69;101523.81;5073151;28;45234;-73
2022/03/09 03:49:47;;;;;;;;;65.00;49.50;;;;;5.71;56.47;101596.22;5074860;28;46275;-73
2022/03/09 03:52:12;;;;;;;;;60.00;47.25;;;;;5.47;56.51;101565.16;5074477;27;45422;-73
2022/03/09 03:54:38;;;;;;;;;71.25;52.25;;;;;5.67;56.75;101607.34;5079005;28;45653;-73
2022/03/09 03:57:03;;;;;;;;;57.50;45.25;;;;;5.48;60.78;101576.53;5070339;27;45436;-73
2022/03/09 03:59:29;;;;;;;;;61.75;47.50;;;;;5.54;60.97;101596.13;5079113;27;46439;-73
2022/03/09 04:01:54;;;;;;;;;57.75;43.75;;;;;5.57;58.85;101604.22;5069287;28;45464;-73
2022/03/09 04:04:19;;;;;;;;;52.75;41.50;;;;;5.34;59.17;101565.25;5077756;28;45343;-73
2022/03/09 04:06:45;;;;;;;;;67.75;52.25;;;;;5.66;57.99;101621.25;5070363;27;45346;-73
2022/03/09 04:09:10;;;;;;;;;70.00;47.75;;;;;5.39;59.40;101585.69;5079090;27;45389;-73
2022/03/09 04:11:35;;;;;;;;;63.50;44.50;;;;;5.43;56.79;101594.63;5070137;27;45524;-73
2022/03/09 04:14:01;;;;;;;;;63.00;49.25;;;;;5.43;59.40;101593.72;5075326;28;45663;-73
2022/03/09 04:16:26;;;;;;;;;61.50;46.25;;;;;5.54;59.43;101611.88;5070943;27;45408;-73
2022/03/09 04:18:51;;;;;;;;;65.75;51.50;;;;;5.23;60.42;101562.00;5070143;28;45351;-73
2022/03/09 04:21:17;;;;;;;;;68.25;53.00;;;;;5.46;60.51;101591.28;5071597;28;45462;-74
2022/03/09 04:23:43;;;;;;;;;65.75;48.00;;;;;5.54;58.28;101608.34;5070383;28;45421;-73
2022/03/09 04:26:10;;;;;;;;;61.25;46.50;;;;;5.63;61.75;101627.28;5074977;28;45305;-73
2022/03/09 04:28:35;;;;;;;;;47.50;38.00;;;;;5.64;59.59;101621.19;5069737;28;45315;-73
2022/03/09 04:31:00;;;;;;;;;53.75;43.00;;;;;5.59;60.39;101604.28;5078413;27;45369;-73
2022/03/09 04:33:26;;;;;;;;;47.75;39.75;;;;;5.76;64.06;101626.22;5069799;28;45254;-73
2022/03/09 04:35:51;;;;;;;;;42.00;37.25;;;;;5.78;64.33;101624.59;5078377;28;45327;-73
2022/03/09 04:38:17;;;;;;;;;35.00;31.75;;;;;5.79;63.38;101616.81;5070399;27;46253;-73
2022/03/09 04:40:42;;;;;;;;;292.25;252.25;;;;;5.39;58.10;101528.00;5078316;28;45319;-73
2022/03/09 04:43:07;;;;;;;;;94.67;75.33;;;;;5.76;62.39;101598.28;5072165;27;45571;-73
2022/03/09 04:45:33;;;;;;;;;90.00;66.33;;;;;5.60;60.34;101566.75;5078420;28;45359;-73
2022/03/09 04:47:59;;;;;;;;;80.67;61.67;;;;;5.67;61.18;101574.16;5072893;27;45498;-73
2022/03/09 04:50:24;;;;;;;;;68.00;55.00;;;;;5.71;60.51;101584.00;5073879;28;45334;-73
2022/03/09 04:52:50;;;;;;;;;69.75;52.50;;;;;5.89;60.85;101610.38;5074511;27;45404;-73
2022/03/09 04:55:16;;;;;;;;;64.25;49.25;;;;;6.00;64.60;101640.78;5075207;28;45524;-73
2022/03/09 04:57:41;;;;;;;;;57.75;42.75;;;;;5.76;66.27;101600.91;5072513;28;45443;-73
2022/03/09 05:00:08;;;;;;;;;45.50;38.75;;;;;5.94;61.85;101626.41;5076745;27;45555;-73
2022/03/09 05:02:34;;;;;;;;;50.00;37.75;;;;;5.96;67.36;101628.28;5071828;28;45493;-73
2022/03/09 05:05:00;;;;;;;;;41.75;33.50;;;;;5.82;66.60;101601.25;5073562;28;46455;-73
2022/03/09 05:07:25;;;;;;;;;32.25;25.75;;;;;6.08;69.11;101643.84;5069674;28;46078;-73
2022/03/09 05:09:50;;;;;;;;;49.00;40.00;;;;;6.04;66.66;101628.72;5078194;27;45220;-73
2022/03/09 05:12:16;;;;;;;;;37.00;34.50;;;;;6.16;66.56;101647.78;5077043;28;45488;-73
2022/03/09 05:14:41;;;;;;;;;41.25;33.50;;;;;5.95;65.88;101608.13;5074310;28;47038;-73
2022/03/09 05:17:07;;;;;;;;;47.75;35.25;;;;;6.16;65.08;101654.75;5065998;28;47181;-73
2022/03/09 05:19:32;;;;;;;;;45.50;39.00;;;;;6.02;64.88;101647.03;5071119;28;45304;-73
2022/03/09 05:21:57;;;;;;;;;66.33;55.33;;;;;5.64;61.13;101588.81;5070933;27;45168;-73
2022/03/09 05:24:23;;;;;;;;;74.33;57.67;;;;;5.33;63.53;101560.84;5073572;28;46123;-73
2022/03/09 05:26:48;;;;;;;;;75.00;58.00;;;;;5.55;61.20;101607.56;5076002;28;47140;-73
2022/03/09 05:29:14;;;;;;;;;77.00;57.67;;;;;5.61;59.42;101626.25;5080276;28;45668;-73
2022/03/09 05:31:40;;;;;;;;;67.00;51.33;;;;;5.47;61.23;101606.22;5076279;28;45366;-73
2022/03/09 05:34:06;;;;;;;;;77.33;58.67;;;;;5.77;60.00;101672.63;5081057;27;45450;-73
2022/03/09 05:36:31;;;;;;;;;73.33;57.00;;;;;5.74;60.01;101669.81;5077391;27;45646;-73
2022/03/09 05:38:57;;;;;;;;;67.00;52.00;;;;;5.44;59.51;101627.00;5077947;28;45347;-74
2022/03/09 05:41:22;;;;;;;;;76.67;57.67;;;;;5.66;60.91;101682.53;5078792;27;45431;-73
2022/03/09 05:43:49;;;;;;;;;80.00;60.67;;;;;5.51;59.12;101668.50;5094352;27;46890;-74
2022/03/09 05:46:15;;;;;;;;;74.33;55.00;;;;;5.53;60.53;101690.47;5071678;28;47333;-72
2022/03/09 05:48:41;;;;;;;;;78.67;57.00;;;;;5.37;60.84;101676.44;5075838;28;45235;-73
2022/03/09 05:51:06;;;;;;;;;70.33;55.33;;;;;5.44;59.42;101684.69;5073135;28;45340;-72
2022/03/09 05:53:32;;;;;;;;;79.67;58.67;;;;;5.45;60.46;101683.88;5077513;28;45286;-72
2022/03/09 05:55:57;;;;;;;;;68.33;56.00;;;;;5.29;59.71;101662.00;5077972;28;47011;-74
2022/03/09 05:58:22;;;;;;;;;78.67;57.00;;;;;5.37;60.15;101680.78;5080078;28;45386;-73
2022/03/09 06:00:48;;;;;;;;;66.00;52.00;;;;;5.12;61.21;101645.25;5074846;28;45436;-74
2022/03/09 06:03:13;;;;;;;;;71.00;55.25;;;;;5.29;61.82;101675.13;5079647;28;45318;-73
2022/03/09 06:05:39;;;;;;;;;69.50;53.75;;;;;5.41;60.37;101695.91;5075259;27;46197;-74
2022/03/09 06:08:04;;;;;;;;;71.33;49.33;;;;;5.42;63.03;101694.19;5078759;28;45350;-72
2022/03/09 06:10:29;;;;;;;;;70.25;54.00;;;;;5.51;61.19;101705.22;5076423;27;45409;-72
2022/03/09 06:12:55;;;;;;;;;59.00;46.00;;;;;5.30;58.69;101655.94;5077296;28;45346;-73
2022/03/09 06:15:20;;;;;;;;;73.00;49.75;;;;;5.54;62.52;101703.66;5076109;27;45601;-74
2022/03/09 06:17:47;;;;;;;;;63.50;48.75;;;;;5.47;62.46;101682.25;5080027;28;45443;-74
2022/03/09 06:20:22;;;;;;;;;65.00;51.25;;;;;5.63;61.54;101711.19;5078463;28;46066;-74
2022/03/09 06:22:48;;;;;;;;;63.00;50.00;;;;;5.68;63.65;101703.56;5069837;27;45320;-73
2022/03/09 06:25:17;;;;;;;;;63.50;49.00;;;;;5.56;63.37;101686.31;5074151;28;47141;-74
2022/03/09 06:27:48;;;;;;;;;65.25;49.25;;;;;5.64;62.45;101689.38;5079915;28;45308;-74
2022/03/09 06:30:14;;;;;;;;;63.50;51.25;;;;;5.75;63.31;101709.28;5078103;28;45469;-75
2022/03/09 06:32:41;;;;;;;;;52.50;39.75;;;;;5.34;63.85;101631.69;5087051;27;46165;-74
2022/03/09 06:35:07;;;;;;;;;68.25;50.00;;;;;5.80;62.66;101713.06;5079582;28;45393;-74
2022/03/09 06:37:33;;;;;;;;;64.75;51.50;;;;;5.50;63.71;101661.44;5079103;28;45397;-74
2022/03/09 06:39:59;;;;;;;;;64.75;50.75;;;;;5.83;61.64;101721.13;5079739;28;45689;-74
2022/03/09 06:42:25;;;;;;;;;65.00;46.25;;;;;5.88;59.66;101720.47;5078706;28;46152;-74
2022/03/09 06:44:51;;;;;;;;;65.33;53.33;;;;;5.48;64.73;101655.22;5079591;28;45464;-74
2022/03/09 06:47:17;;;;;;;;;68.75;52.25;;;;;5.93;64.47;101725.19;5078785;28;45723;-75
2022/03/09 06:49:42;;;;;;;;;63.25;48.25;;;;;5.86;64.29;101709.91;5077869;28;45429;-74
2022/03/09 06:52:08;;;;;;;;;62.00;49.00;;;;;5.58;63.42;101663.72;5079946;28;45660;-74
2022/03/09 06:54:34;;;;;;;;;61.50;48.00;;;;;5.86;64.34;101706.38;5079216;27;46597;-74
2022/03/09 06:56:59;;;;;;;;;72.00;54.25;;;;;6.03;63.53;101729.28;5076230;28;45411;-74
2022/03/09 06:59:24;;;;;;;;;60.75;50.00;;;;;5.95;63.87;101720.97;5079644;28;45237;-74
2022/03/09 07:01:50;;;;;;;;;56.00;45.50;;;;;6.03;63.86;101734.53;5070844;28;45556;-75
2022/03/09 07:04:15;;;;;;;;;60.50;44.25;;;;;5.89;64.77;101709.19;5077359;28;46921;-75
2022/03/09 07:06:41;;;;;;;;;65.25;50.50;;;;;5.77;64.96;101693.59;5078871;27;45294;-75
2022/03/09 07:09:06;;;;;;;;;71.25;53.00;;;;;5.59;66.41;101651.50;5094994;27;45278;-75
2022/03/09 07:11:31;;;;;;;;;61.50;47.50;;;;;6.03;64.37;101727.56;5079522;28;45228;-74
2022/03/09 07:13:57;;;;;;;;;49.50;43.50;;;;;5.45;64.80;101620.94;5074015;27;45199;-75
2022/03/09 07:16:22;;;;;;;;;55.25;42.75;;;;;5.83;63.52;101670.38;5076699;28;45383;-74
2022/03/09 07:18:48;;;;;;;;;62.75;46.00;;;;;5.91;61.56;101679.59;5061098;28;45315;-75
2022/03/09 07:21:13;;;;;;;;;60.25;47.75;;;;;6.42;64.70;101750.75;5076471;28;45317;-73
2022/03/09 07:23:39;;;;;;;;;56.00;42.75;;;;;6.42;63.14;101741.13;5062135;28;45213;-74
2022/03/09 07:26:05;;;;;;;;;60.25;47.75;;;;;6.53;65.64;101740.84;5076555;28;45328;-74
2022/03/09 07:28:30;;;;;;;;;52.50;44.50;;;;;6.79;63.10;101773.81;5075802;28;45348;-75
2022/03/09 07:30:56;;;;;;;;;57.00;44.00;;;;;6.78;64.18;101758.84;5075520;28;47470;-75
2022/03/09 07:33:21;;;;;;;;;52.50;42.75;;;;;6.88;63.77;101769.94;5076081;28;45434;-75
2022/03/09 07:35:47;;;;;;;;;60.75;50.25;;;;;7.08;64.53;101785.91;5078557;28;45422;-75
2022/03/09 07:38:14;;;;;;;;;56.50;44.50;;;;;7.15;64.30;101785.44;5079645;28;45490;-75
2022/03/09 07:40:40;;;;;;;;;54.25;43.50;;;;;6.94;64.46;101729.94;5074577;28;46107;-75
2022/03/09 07:43:05;;;;;;;;;57.00;43.00;;;;;7.11;64.35;101751.88;5073429;28;45324;-75
2022/03/09 07:45:31;;;;;;;;;58.75;46.50;;;;;7.36;64.74;101786.56;5078716;28;45324;-75
2022/03/09 07:47:57;;;;;;;;;66.75;53.25;;;;;7.44;63.00;101786.06;5078657;28;45322;-74
2022/03/09 07:50:23;;;;;;;;;55.75;44.50;;;;;7.44;64.32;101786.97;5075537;28;46181;-75
2022/03/09 07:52:48;;;;;;;;;54.75;42.50;;;;;7.30;62.33;101751.16;5079145;28;45477;-75
2022/03/09 07:55:14;;;;;;;;;52.50;43.00;;;;;7.59;65.35;101792.16;5076325;28;45616;-75
2022/03/09 07:57:39;;;;;;;;;55.25;43.25;;;;;7.47;63.45;101759.91;5063230;27;45370;-75
2022/03/09 08:00:06;;;;;;;;;47.00;39.50;;;;;7.31;64.69;101724.00;5068009;28;45287;-75
2022/03/09 08:02:32;;;;;;;;;54.00;43.25;;;;;7.85;64.91;101801.38;5069037;28;47369;-75
2022/03/09 08:04:57;;;;;;;;;46.25;37.25;;;;;7.64;63.95;101738.00;5078322;28;45467;-75
2022/03/09 08:07:23;;;;;;;;;48.00;41.75;;;;;8.07;64.50;101801.66;5077706;28;45482;-74
2022/03/09 08:09:48;;;;;;;;;53.50;41.50;;;;;7.62;64.62;101711.63;5078296;28;45464;-75
2022/03/09 08:12:14;;;;;;;;;52.00;41.00;;;;;8.02;63.87;101758.38;5068977;28;45402;-75
2022/03/09 08:14:39;;;;;;;;;53.75;41.50;;;;;8.19;63.04;101771.50;5064841;28;45521;-74
2022/03/09 08:17:05;;;;;;;;;44.25;38.75;;;;;7.96;63.95;101707.16;5076987;28;45488;-74
2022/03/09 08:19:30;;;;;;;;;47.50;38.00;;;;;8.27;63.45;101749.06;5075799;28;45401;-73
2022/03/09 08:21:55;;;;;;;;;53.75;42.25;;;;;7.84;64.00;101654.78;5071780;27;45955;-74
2022/03/09 08:24:21;;;;;;;;;45.00;39.50;;;;;8.50;63.95;101761.66;5076280;28;45313;-74
2022/03/09 08:26:47;;;;;;;;;46.25;36.75;;;;;8.87;63.22;101802.03;5076744;28;45263;-73
2022/03/09 08:29:12;;;;;;;;;48.75;37.25;;;;;8.78;63.48;101781.41;5078954;28;45429;-73
2022/03/09 08:31:38;;;;;;;;;29.75;28.75;;;;;8.83;63.72;101779.00;5076882;28;45399;-72
2022/03/09 08:34:03;;;;;;;;;37.50;34.50;;;;;9.13;63.80;101812.09;5074310;28;45265;-74
2022/03/09 08:36:29;;;;;;;;;35.50;35.00;;;;;9.16;62.13;101801.66;5078311;27;45224;-74
2022/03/09 08:38:55;;;;;;;;;38.50;34.00;;;;;8.95;63.21;101755.84;5076116;28;46331;-74
2022/03/09 08:41:24;;;;;;;;;32.75;28.75;;;;;9.14;63.80;101765.50;5075888;28;48429;-74
2022/03/09 08:43:50;;;;;;;;;30.25;27.50;;;;;9.35;61.71;101791.94;5077131;28;45305;-74
2022/03/09 08:46:15;;;;;;;;;23.50;20.00;;;;;9.35;61.51;101792.88;5077863;27;45283;-74
2022/03/09 08:48:41;;;;;;;;;29.50;24.50;;;;;9.51;61.07;101812.91;5078369;28;45258;-74
2022/03/09 08:51:07;;;;;;;;;37.50;32.75;;;;;9.55;62.96;101820.16;5075372;28;47306;-74
2022/03/09 08:53:33;;;;;;;;;30.25;25.00;;;;;9.28;63.01;101761.75;5077112;28;45292;-74
2022/03/09 08:55:59;;;;;;;;;25.50;23.50;;;;;9.47;61.44;101775.78;5074335;28;45429;-74
2022/03/09 08:58:24;;;;;;;;;27.50;26.75;;;;;9.44;62.90;101762.41;5078009;27;45592;-73
2022/03/09 09:00:50;;;;;;;;;30.50;24.50;;;;;9.51;62.27;101767.16;5073996;27;45382;-74
2022/03/09 09:03:15;;;;;;;;;25.75;24.00;;;;;9.36;62.31;101733.97;5078889;28;45358;-74
2022/03/09 09:05:41;;;;;;;;;23.50;23.00;;;;;9.83;62.20;101803.78;5080025;27;45347;-73
2022/03/09 09:08:06;;;;;;;;;31.25;26.25;;;;;9.95;61.26;101821.00;5081807;28;45503;-74
2022/03/09 09:10:33;;;;;;;;;27.75;23.75;;;;;9.79;62.45;101795.66;5074308;28;47322;-73
2022/03/09 09:12:58;;;;;;;;;27.25;26.00;;;;;10.07;61.92;101826.78;5065242;28;45393;-73
2022/03/09 09:15:25;;;;;;;;;29.50;24.50;;;;;9.93;62.10;101770.72;5078561;28;45232;-75
2022/03/09 09:18:00;;;;;;;;;32.00;25.00;;;;;10.13;61.65;101797.09;5078477;28;45572;-74
2022/03/09 09:20:27;;;;;;;;;29.75;24.00;;;;;10.32;62.44;101814.66;5080243;28;45328;-73
2022/03/09 09:22:54;;;;;;;;;28.00;24.25;;;;;10.35;61.39;101812.13;5071857;27;45429;-73
2022/03/09 09:25:20;;;;;;;;;26.25;24.75;;;;;10.40;61.04;101810.59;5079934;28;45540;-73
2022/03/09 09:27:46;;;;;;;;;27.00;23.25;;;;;10.40;61.91;101794.75;5072914;27;45427;-73
2022/03/09 09:30:12;;;;;;;;;25.25;20.75;;;;;10.51;60.88;101802.25;5081102;28;45591;-73
2022/03/09 09:32:37;;;;;;;;;23.50;23.00;;;;;10.17;61.68;101723.31;5073703;27;45496;-73
2022/03/09 09:35:03;;;;;;;;;23.75;22.25;;;;;10.44;62.16;101751.72;5072038;28;45335;-73
2022/03/09 09:37:28;;;;;;;;;27.75;24.75;;;;;10.62;61.63;101775.38;5074789;28;45469;-73
2022/03/09 09:39:54;;;;;;;;;20.25;18.75;;;;;10.79;62.02;101803.38;5074924;28;46038;-73
2022/03/09 09:42:22;;;;;;;;;24.50;19.00;;;;;10.82;61.52;101798.19;5075294;28;45467;-73
2022/03/09 09:44:48;;;;;;;;;24.50;20.75;;;;;10.88;61.40;101808.13;5081443;27;45457;-73
2022/03/09 09:47:14;;;;;;;;;21.50;19.75;;;;;10.89;60.84;101788.75;5076889;27;45354;-73
2022/03/09 09:49:40;;;;;;;;;19.00;19.00;;;;;10.52;61.19;101730.03;5077598;28;47183;-74
2022/03/09 09:52:07;;;;;;;;;18.75;18.75;;;;;10.89;61.23;101778.16;5109832;27;45441;-73
2022/03/09 09:54:33;;;;;;;;;24.50;21.25;;;;;11.02;60.31;101804.25;5071979;28;45449;-74
2022/03/09 09:57:00;;;;;;;;;21.25;20.25;;;;;10.94;61.22;101772.22;5071891;28;45284;-74
2022/03/09 09:59:25;;;;;;;;;23.25;19.50;;;;;11.12;61.24;101787.91;5079535;27;45413;-73
2022/03/09 10:01:51;;;;;;;;;23.50;19.00;;;;;11.20;60.72;101770.56;5077606;28;45946;-73
2022/03/09 10:04:16;;;;;;;;;22.50;17.00;;;;;11.44;60.04;101798.78;5065307;28;45398;-73
2022/03/09 10:06:41;;;;;;;;;20.00;17.00;;;;;11.47;59.71;101783.00;5080715;27;45611;-73
2022/03/09 10:09:09;;;;;;;;;20.75;15.25;;;;;11.53;59.76;101769.97;5079008;28;48604;-74
2022/03/09 10:11:52;;;;;;;;;20.50;16.75;;;;;11.45;58.55;101720.25;5069984;28;45679;-73
2022/03/09 10:14:42;;;;;;;;;15.00;14.50;;;;;12.15;58.72;101788.06;5077977;28;45473;-73
2022/03/09 10:17:15;;;;;;;;;16.00;14.00;;;;;12.34;58.55;101790.47;5075100;28;46093;-73
2022/03/09 10:19:47;;;;;;;;;14.75;14.75;;;;;12.42;57.85;101770.41;5076992;28;47074;-73
2022/03/09 10:22:22;;;;;;;;;18.75;16.00;;;;;12.61;57.57;101784.28;5080602;27;45454;-73
2022/03/09 10:24:48;;;;;;;;;19.00;17.25;;;;;12.80;57.63;101786.66;5078598;28;45395;-73
2022/03/09 10:27:47;;;;;;;;;17.00;15.00;;;;;13.02;56.92;101782.88;5080431;28;45237;-73
2022/03/09 10:30:23;;;;;;;;;19.00;15.00;;;;;13.26;56.42;101779.19;5077761;28;45509;-73
2022/03/09 10:33:00;;;;;;;;;15.00;15.00;;;;;13.39;56.02;101765.41;5079580;28;45308;-73
2022/03/09 10:35:29;;;;;;;;;19.25;13.75;;;;;13.69;55.69;101775.97;5080433;28;45429;-73
2022/03/09 10:37:55;;;;;;;;;19.00;16.00;;;;;13.71;54.89;101766.28;5071755;28;46053;-74
2022/03/09 10:40:22;;;;;;;;;13.50;13.00;;;;;13.93;54.10;101756.25;5079757;28;46236;-75
2022/03/09 10:42:48;;;;;;;;;15.00;11.75;;;;;13.89;53.94;101712.72;5080334;28;45314;-74
2022/03/09 10:45:17;;;;;;;;;14.50;12.50;;;;;14.39;53.43;101755.59;5078236;28;45560;-73
2022/03/09 10:47:48;;;;;;;;;16.50;12.25;;;;;14.61;53.16;101753.50;5072417;28;47196;-74
2022/03/09 10:50:16;;;;;;;;;10.25;8.75;;;;;15.03;52.96;101772.19;5073157;27;46177;-73
2022/03/09 10:52:46;;;;;;;;;16.50;12.00;;;;;15.22;53.00;101765.50;5072590;28;45995;-73
2022/03/09 10:55:32;;;;;;;;;11.67;11.00;;;;;15.43;51.98;101765.00;5078721;27;45407;-74
2022/03/09 10:58:13;;;;;;;;;12.33;11.67;;;;;15.25;52.11;101722.94;5075709;28;46372;-73
2022/03/09 11:00:44;;;;;;;;;11.33;11.33;;;;;15.40;51.33;101733.91;5075025;28;46009;-73
2022/03/09 11:03:11;;;;;;;;;13.00;12.67;;;;;15.80;51.52;101768.44;5077738;28;45319;-74
2022/03/09 11:05:47;;;;;;;;;11.67;11.00;;;;;16.04;51.48;101762.63;5075548;27;45279;-74
2022/03/09 11:08:15;;;;;;;;;14.67;13.33;;;;;15.99;50.70;101710.97;5077790;28;45417;-75
2022/03/09 11:10:41;;;;;;;;;15.33;13.00;;;;;16.29;50.32;101730.16;5074874;27;45753;-75
2022/03/09 11:13:07;;;;;;;;;15.33;12.33;;;;;16.15;49.85;101669.47;5079004;28;45364;-75
2022/03/09 11:15:32;;;;;;;;;17.00;14.00;;;;;16.89;48.99;101760.44;5075382;27;45319;-75